createdAt,value
2022-11-24T00:00:06.806Z,1.08
2022-11-24T00:02:55.050Z,1.12
2022-11-24T00:05:24.012Z,1.15
2022-11-24T00:07:52.313Z,1.16
2022-11-24T00:10:20.643Z,1.16
2022-11-24T00:12:48.926Z,1.15
2022-11-24T00:15:17.190Z,1.14
2022-11-24T00:17:45.549Z,1.16
2022-11-24T00:20:13.814Z,1.18
2022-11-24T00:22:42.349Z,1.21
2022-11-24T00:25:10.626Z,1.24
2022-11-24T00:27:38.817Z,1.30
2022-11-24T00:30:07.596Z,1.34
2022-11-24T00:32:36.090Z,1.37
2022-11-24T00:35:04.865Z,1.39
2022-11-24T00:37:33.071Z,1.39
2022-11-24T00:40:01.338Z,1.34
2022-11-24T00:42:29.882Z,1.40
2022-11-24T00:44:58.332Z,1.41
2022-11-24T00:47:29.092Z,1.42
2022-11-24T00:49:57.331Z,1.44
2022-11-24T00:52:25.527Z,1.47
2022-11-24T00:54:53.915Z,1.53
2022-11-24T00:57:22.257Z,1.57
2022-11-24T00:59:50.601Z,1.57
2022-11-24T01:02:18.749Z,1.59
2022-11-24T01:04:48.468Z,1.59
2022-11-24T01:07:16.361Z,1.56
2022-11-24T01:09:46.903Z,1.53
2022-11-24T01:12:15.572Z,1.52
2022-11-24T01:14:44.186Z,1.54
2022-11-24T01:17:12.350Z,1.52
2022-11-24T01:19:43.705Z,1.52
2022-11-24T01:22:13.812Z,1.54
2022-11-24T01:24:42.368Z,1.55
2022-11-24T01:27:13.885Z,1.56
2022-11-24T01:29:43.011Z,1.57
2022-11-24T01:32:11.193Z,1.59
2022-11-24T01:34:39.455Z,1.59
2022-11-24T01:37:07.602Z,1.58
2022-11-24T01:39:35.960Z,1.59
2022-11-24T01:42:04.556Z,1.60
2022-11-24T01:44:33.183Z,1.61
2022-11-24T01:47:19.987Z,1.63
2022-11-24T01:49:56.138Z,1.63
2022-11-24T01:52:47.446Z,1.59
2022-11-24T01:55:21.671Z,1.51
2022-11-24T01:57:58.689Z,1.46
2022-11-24T02:00:27.041Z,1.42
2022-11-24T02:02:56.477Z,1.36
2022-11-24T02:05:38.479Z,1.33
2022-11-24T02:08:13.206Z,1.30
2022-11-24T02:10:43.024Z,1.29
2022-11-24T02:13:13.390Z,1.23
2022-11-24T02:15:42.273Z,1.26
2022-11-24T02:18:10.739Z,1.26
2022-11-24T02:20:39.121Z,1.26
2022-11-24T02:23:38.047Z,1.25
2022-11-24T02:26:37.306Z,1.26
2022-11-24T02:29:05.386Z,1.21
2022-11-24T02:31:35.121Z,1.15
2022-11-24T02:34:03.645Z,1.11
2022-11-24T02:36:31.849Z,1.10
2022-11-24T02:39:00.070Z,1.08
2022-11-24T02:41:29.446Z,1.08
2022-11-24T02:44:02.059Z,1.08
2022-11-24T02:46:30.530Z,1.09
2022-11-24T02:48:58.788Z,1.11
2022-11-24T02:51:27.002Z,1.11
2022-11-24T02:53:55.369Z,1.12
2022-11-24T02:56:23.577Z,1.12
2022-11-24T02:58:52.001Z,1.13
2022-11-24T03:01:20.519Z,1.13
2022-11-24T03:03:48.907Z,1.11
2022-11-24T03:06:17.132Z,1.13
2022-11-24T03:08:45.558Z,1.13
2022-11-24T03:11:13.760Z,1.13
2022-11-24T03:13:42.060Z,1.11
2022-11-24T03:16:10.729Z,1.08
2022-11-24T03:18:39.406Z,1.07
2022-11-24T03:21:10.783Z,1.06
2022-11-24T03:23:39.195Z,1.05
2022-11-24T03:26:13.108Z,1.05
2022-11-24T03:28:41.771Z,1.06
2022-11-24T03:31:10.957Z,1.06
2022-11-24T03:33:39.895Z,1.05
2022-11-24T03:36:08.699Z,1.07
2022-11-24T03:38:36.960Z,1.04
2022-11-24T03:41:05.296Z,1.02
2022-11-24T03:43:34.524Z,1.00
2022-11-24T03:46:05.064Z,0.95
2022-11-24T03:48:33.397Z,0.91
2022-11-24T03:51:03.510Z,0.88
2022-11-24T03:53:34.140Z,0.86
2022-11-24T03:56:03.076Z,0.84
2022-11-24T03:58:31.647Z,0.82
2022-11-24T04:01:00.024Z,0.86
2022-11-24T04:03:28.346Z,0.88
2022-11-24T04:05:56.722Z,0.93
2022-11-24T04:08:24.992Z,0.99
2022-11-24T04:10:54.761Z,0.99
2022-11-24T04:13:25.021Z,1.05
2022-11-24T04:15:53.807Z,1.05
2022-11-24T04:18:22.377Z,1.01
2022-11-24T04:20:51.688Z,0.96
2022-11-24T04:23:20.418Z,0.93
2022-11-24T04:25:49.105Z,0.95
2022-11-24T04:28:17.887Z,0.97
2022-11-24T04:31:05.737Z,0.98
2022-11-24T04:33:36.012Z,1.01
2022-11-24T04:36:09.851Z,1.06
2022-11-24T04:39:19.899Z,1.10
2022-11-24T04:41:28.250Z,1.16
2022-11-24T04:44:01.048Z,1.22
2022-11-24T04:46:40.020Z,1.27
2022-11-24T04:49:13.488Z,1.29
2022-11-24T04:51:49.203Z,1.31
2022-11-24T04:54:19.166Z,1.35
2022-11-24T04:56:58.016Z,1.35
2022-11-24T04:59:26.853Z,1.33
2022-11-24T05:01:59.786Z,1.33
2022-11-24T05:04:34.929Z,1.35
2022-11-24T05:07:21.869Z,1.37
2022-11-24T05:10:13.300Z,1.43
2022-11-24T05:12:49.953Z,1.48
2022-11-24T05:15:22.133Z,1.54
2022-11-24T05:17:51.622Z,1.55
2022-11-24T05:20:22.887Z,1.56
2022-11-24T05:22:51.844Z,1.57
2022-11-24T05:25:20.751Z,1.58
2022-11-24T05:27:48.915Z,1.58
2022-11-24T05:30:18.070Z,1.58
2022-11-24T05:32:49.857Z,1.56
2022-11-24T05:35:19.162Z,1.54
2022-11-24T05:37:49.429Z,1.54
2022-11-24T05:40:19.632Z,1.56
2022-11-24T05:42:51.915Z,1.54
2022-11-24T05:45:29.576Z,1.53
2022-11-24T05:48:15.783Z,1.53
2022-11-24T05:50:44.412Z,1.55
2022-11-24T05:53:14.277Z,1.58
2022-11-24T05:55:43.693Z,1.57
2022-11-24T05:58:13.138Z,1.57
2022-11-24T06:00:46.463Z,1.58
2022-11-24T06:03:15.384Z,1.58
2022-11-24T06:05:47.810Z,1.58
2022-11-24T06:08:20.930Z,1.58
2022-11-24T06:10:50.733Z,1.61
2022-11-24T06:13:20.772Z,1.60
2022-11-24T06:15:50.822Z,1.64
2022-11-24T06:18:19.637Z,1.65
2022-11-24T06:21:09.221Z,1.68
2022-11-24T06:23:41.006Z,1.70
2022-11-24T06:26:09.804Z,1.72
2022-11-24T06:28:39.529Z,1.74
2022-11-24T06:31:08.191Z,1.77
2022-11-24T06:33:41.155Z,1.80
2022-11-24T06:36:13.266Z,1.81
2022-11-24T06:38:41.547Z,1.86
2022-11-24T06:41:15.530Z,1.90
2022-11-24T06:43:45.116Z,1.94
2022-11-24T06:46:21.357Z,1.97
2022-11-24T06:48:53.953Z,1.98
2022-11-24T06:51:21.818Z,2.00
2022-11-24T06:53:49.752Z,2.01
2022-11-24T06:56:22.445Z,2.01
2022-11-24T06:58:52.563Z,2.05
2022-11-24T07:01:24.271Z,2.07
2022-11-24T07:03:54.434Z,2.03
2022-11-24T07:06:24.101Z,2.07
2022-11-24T07:08:52.752Z,2.08
2022-11-24T07:11:22.853Z,2.11
2022-11-24T07:13:59.638Z,2.14
2022-11-24T07:16:28.700Z,2.17
2022-11-24T07:18:57.503Z,2.15
2022-11-24T07:21:27.764Z,2.14
2022-11-24T07:24:01.732Z,2.12
2022-11-24T07:26:39.346Z,2.08
2022-11-24T07:29:08.178Z,2.06
2022-11-24T07:31:54.886Z,2.04
2022-11-24T07:34:25.000Z,2.03
2022-11-24T07:37:05.472Z,2.07
2022-11-24T07:39:37.260Z,2.14
2022-11-24T07:42:18.604Z,2.19
2022-11-24T07:45:35.750Z,2.23
2022-11-24T07:48:15.450Z,2.29
2022-11-24T07:50:44.554Z,2.32
2022-11-24T07:53:12.837Z,2.36
2022-11-24T07:55:41.613Z,2.44
2022-11-24T07:58:09.801Z,2.53
2022-11-24T08:00:43.630Z,2.64
2022-11-24T08:03:13.058Z,2.71
2022-11-24T08:06:00.680Z,2.79
2022-11-24T08:08:33.430Z,2.83
2022-11-24T08:11:06.336Z,2.93
2022-11-24T08:13:37.864Z,2.99
2022-11-24T08:16:07.647Z,3.06
2022-11-24T08:18:38.769Z,3.14
2022-11-24T08:21:07.491Z,3.19
2022-11-24T08:23:35.383Z,3.23
2022-11-24T08:26:07.275Z,3.24
2022-11-24T08:28:36.527Z,3.24
2022-11-24T08:31:16.204Z,3.24
2022-11-24T08:33:47.033Z,3.24
2022-11-24T08:36:22.587Z,3.24
2022-11-24T08:38:56.589Z,3.27
2022-11-24T08:41:29.163Z,3.27
2022-11-24T08:43:59.033Z,3.27
2022-11-24T08:46:27.070Z,3.27
2022-11-24T08:48:56.221Z,3.27
2022-11-24T08:51:26.322Z,3.31
2022-11-24T08:53:56.878Z,3.34
2022-11-24T08:56:29.686Z,3.38
2022-11-24T08:59:00.811Z,3.39
2022-11-24T09:01:33.035Z,3.38
2022-11-24T09:04:02.124Z,3.42
2022-11-24T09:06:32.785Z,3.44
2022-11-24T09:09:01.792Z,3.46
2022-11-24T09:11:31.495Z,3.41
2022-11-24T09:14:08.383Z,3.48
2022-11-24T09:16:44.515Z,3.52
2022-11-24T09:19:12.864Z,3.57
2022-11-24T09:21:41.606Z,3.62
2022-11-24T09:24:10.550Z,3.70
2022-11-24T09:26:43.061Z,3.78
2022-11-24T09:29:16.419Z,3.75
2022-11-24T09:31:44.701Z,3.94
2022-11-24T09:34:17.710Z,4.03
2022-11-24T09:36:45.810Z,4.10
2022-11-24T09:39:14.110Z,4.20
2022-11-24T09:42:02.062Z,4.30
2022-11-24T09:44:42.488Z,4.41
2022-11-24T09:47:22.518Z,4.56
2022-11-24T09:50:04.193Z,4.74
2022-11-24T09:53:02.135Z,4.89
2022-11-24T09:55:49.828Z,5.00
2022-11-24T09:58:48.625Z,5.05
2022-11-24T10:01:28.715Z,5.14
2022-11-24T10:04:02.619Z,5.19
2022-11-24T10:06:47.635Z,5.22
2022-11-24T10:09:40.850Z,5.25
2022-11-24T10:12:21.864Z,5.25
2022-11-24T10:15:19.299Z,5.26
2022-11-24T10:18:17.261Z,5.29
2022-11-24T10:21:04.226Z,5.31
2022-11-24T10:23:47.728Z,5.30
2022-11-24T10:26:30.064Z,5.28
2022-11-24T10:28:58.116Z,5.28
2022-11-24T10:31:41.950Z,5.28
2022-11-24T10:34:21.171Z,5.38
2022-11-24T10:37:11.340Z,5.47
2022-11-24T10:39:51.515Z,5.52
2022-11-24T10:42:31.757Z,5.54
2022-11-24T10:45:11.861Z,5.60
2022-11-24T10:47:43.444Z,5.61
2022-11-24T10:50:43.868Z,5.59
2022-11-24T10:53:16.835Z,5.65
2022-11-24T10:55:57.600Z,5.68
2022-11-24T10:58:37.315Z,5.68
2022-11-24T11:01:15.563Z,5.68
2022-11-24T11:03:56.909Z,5.65
2022-11-24T11:06:32.188Z,5.62
2022-11-24T11:09:07.339Z,5.59
2022-11-24T11:11:36.918Z,5.58
2022-11-24T11:14:13.260Z,5.44
2022-11-24T11:16:55.808Z,5.58
2022-11-24T11:19:49.487Z,5.61
2022-11-24T11:22:24.252Z,5.60
2022-11-24T11:25:20.119Z,5.57
2022-11-24T11:27:49.764Z,5.50
2022-11-24T11:36:16.900Z,5.48
2022-11-24T11:38:47.053Z,5.46
2022-11-24T11:41:22.404Z,5.44
2022-11-24T11:43:56.812Z,5.39
2022-11-24T11:46:32.816Z,5.33
2022-11-24T11:49:00.832Z,5.27
2022-11-24T11:55:14.699Z,5.20
2022-11-24T11:58:01.783Z,5.19
2022-11-24T12:00:33.619Z,5.24
2022-11-24T12:03:16.688Z,5.28
2022-11-24T12:05:58.955Z,5.28
2022-11-24T12:09:18.046Z,5.29
2022-11-24T12:12:03.759Z,5.32
2022-11-24T12:14:44.738Z,5.31
2022-11-24T12:17:53.101Z,5.31
2022-11-24T12:20:39.889Z,5.33
2022-11-24T12:23:33.115Z,5.37
2022-11-24T12:26:15.280Z,5.36
2022-11-24T12:28:58.388Z,5.41
2022-11-24T12:31:45.827Z,5.48
2022-11-24T12:34:39.049Z,5.54
2022-11-24T12:37:36.344Z,5.65
2022-11-24T12:40:24.013Z,5.74
2022-11-24T12:43:24.853Z,5.82
2022-11-24T12:46:19.785Z,5.87
2022-11-24T12:49:06.406Z,5.89
2022-11-24T12:51:46.408Z,5.91
2022-11-24T12:54:17.670Z,5.94
2022-11-24T12:57:07.889Z,5.91
2022-11-24T12:59:56.528Z,5.90
2022-11-24T13:03:03.674Z,5.86
2022-11-24T13:05:59.545Z,5.82
2022-11-24T13:08:28.930Z,5.82
2022-11-24T13:11:16.609Z,5.81
2022-11-24T13:13:59.716Z,5.76
2022-11-24T13:16:38.745Z,5.75
2022-11-24T13:19:20.178Z,5.69
2022-11-24T13:21:56.559Z,5.65
2022-11-24T13:24:36.914Z,5.59
2022-11-24T13:27:18.895Z,5.59
2022-11-24T13:29:48.384Z,5.55
2022-11-24T13:32:19.753Z,5.56
2022-11-24T13:34:49.765Z,5.58
2022-11-24T13:37:31.898Z,5.60
2022-11-24T13:40:23.787Z,5.59
2022-11-24T13:42:54.369Z,5.55
2022-11-24T13:45:53.007Z,5.49
2022-11-24T13:48:21.951Z,5.42
2022-11-24T13:50:50.594Z,5.35
2022-11-24T13:53:42.564Z,5.32
2022-11-24T13:56:13.569Z,5.27
2022-11-24T13:58:46.253Z,5.23
2022-11-24T14:01:19.479Z,5.19
2022-11-24T14:04:28.001Z,5.14
2022-11-24T14:06:46.361Z,5.11
2022-11-24T14:09:26.484Z,5.07
2022-11-24T14:12:12.809Z,5.08
2022-11-24T14:14:42.034Z,5.06
2022-11-24T14:17:20.165Z,5.01
2022-11-24T14:19:50.323Z,5.01
2022-11-24T14:22:21.669Z,4.97
2022-11-24T14:24:54.780Z,4.95
2022-11-24T14:27:29.706Z,4.92
2022-11-24T14:30:02.252Z,4.87
2022-11-24T14:32:30.204Z,4.82
2022-11-24T14:34:58.027Z,4.76
2022-11-24T14:37:26.069Z,4.76
2022-11-24T14:39:56.333Z,4.74
2022-11-24T14:42:25.808Z,4.73
2022-11-24T14:44:55.824Z,4.71
2022-11-24T14:47:31.292Z,4.67
2022-11-24T14:50:22.984Z,4.64
2022-11-24T14:52:56.650Z,4.58
2022-11-24T14:55:26.121Z,4.55
2022-11-24T14:57:56.692Z,4.51
2022-11-24T15:00:24.792Z,4.47
2022-11-24T15:03:01.630Z,4.45
2022-11-24T15:05:51.534Z,4.47
2022-11-24T15:08:19.865Z,4.47
2022-11-24T15:10:48.329Z,4.47
2022-11-24T15:13:22.797Z,4.47
2022-11-24T15:16:01.811Z,4.45
2022-11-24T15:18:38.966Z,4.44
2022-11-24T15:21:07.079Z,4.42
2022-11-24T15:23:36.254Z,4.37
2022-11-24T15:26:04.227Z,4.36
2022-11-24T15:28:33.459Z,4.32
2022-11-24T15:31:04.157Z,4.26
2022-11-24T15:33:32.224Z,4.25
2022-11-24T15:36:00.158Z,4.25
2022-11-24T15:38:27.922Z,4.23
2022-11-24T15:41:00.225Z,4.23
2022-11-24T15:43:38.682Z,4.21
2022-11-24T15:46:09.015Z,4.18
2022-11-24T15:48:37.095Z,4.16
2022-11-24T15:51:13.825Z,4.15
2022-11-24T15:53:48.071Z,4.15
2022-11-24T15:56:36.935Z,4.16
2022-11-24T15:59:04.907Z,4.15
2022-11-24T16:01:34.449Z,4.10
2022-11-24T16:04:02.767Z,4.10
2022-11-24T16:06:31.018Z,4.09
2022-11-24T16:08:59.164Z,4.08
2022-11-24T16:11:27.566Z,4.07
2022-11-24T16:13:55.462Z,4.08
2022-11-24T16:16:25.212Z,4.11
2022-11-24T16:18:54.053Z,4.10
2022-11-24T16:21:21.893Z,4.06
2022-11-24T16:23:49.647Z,4.05
2022-11-24T16:26:17.586Z,4.04
2022-11-24T16:28:46.046Z,4.04
2022-11-24T16:31:16.091Z,4.02
2022-11-24T16:33:47.769Z,4.00
2022-11-24T16:36:15.503Z,3.95
2022-11-24T16:38:43.758Z,3.94
2022-11-24T16:41:11.956Z,3.92
2022-11-24T16:43:40.070Z,3.91
2022-11-24T16:46:16.069Z,3.89
2022-11-24T16:48:45.739Z,3.89
2022-11-24T16:51:14.347Z,3.89
2022-11-24T16:53:42.971Z,3.89
2022-11-24T16:56:10.876Z,3.91
2022-11-24T16:58:40.245Z,3.92
2022-11-24T17:01:13.885Z,3.92
2022-11-24T17:03:42.202Z,3.91
2022-11-24T17:06:12.339Z,3.91
2022-11-24T17:08:41.423Z,3.93
2022-11-24T17:11:23.828Z,3.92
2022-11-24T17:13:52.152Z,3.92
2022-11-24T17:16:22.284Z,3.91
2022-11-24T17:18:50.495Z,3.92
2022-11-24T17:21:23.920Z,3.91
2022-11-24T17:23:56.893Z,3.87
2022-11-24T17:26:25.530Z,3.86
2022-11-24T17:28:54.120Z,3.87
2022-11-24T17:31:24.432Z,3.85
2022-11-24T17:33:57.845Z,3.82
2022-11-24T17:36:27.204Z,3.80
2022-11-24T17:38:55.055Z,3.81
2022-11-24T17:41:23.386Z,3.83
2022-11-24T17:43:58.187Z,3.83
2022-11-24T17:46:27.913Z,3.81
2022-11-24T17:48:56.055Z,3.80
2022-11-24T17:51:25.514Z,3.81
2022-11-24T17:53:54.217Z,3.80
2022-11-24T17:56:24.583Z,3.80
2022-11-24T17:58:58.006Z,3.80
2022-11-24T18:01:28.609Z,3.80
2022-11-24T18:03:57.251Z,3.80
2022-11-24T18:06:25.811Z,3.81
2022-11-24T18:08:54.217Z,3.83
2022-11-24T18:11:30.626Z,3.85
2022-11-24T18:14:02.524Z,3.86
2022-11-24T18:16:33.072Z,3.88
2022-11-24T18:19:11.455Z,3.90
2022-11-24T18:21:41.346Z,3.88
2022-11-24T18:24:11.273Z,3.86
2022-11-24T18:26:40.669Z,3.87
2022-11-24T18:29:09.361Z,3.88
2022-11-24T18:31:38.062Z,3.90
2022-11-24T18:34:06.273Z,3.92
2022-11-24T18:36:34.988Z,3.92
2022-11-24T18:39:08.907Z,3.92
2022-11-24T18:41:36.913Z,3.94
2022-11-24T18:44:08.239Z,3.96
2022-11-24T18:46:37.932Z,3.95
2022-11-24T18:49:07.132Z,3.96
2022-11-24T18:51:36.055Z,3.95
2022-11-24T18:54:05.868Z,3.92
2022-11-24T18:56:34.969Z,3.88
2022-11-24T18:59:02.746Z,3.89
2022-11-24T19:01:31.000Z,3.90
2022-11-24T19:04:01.785Z,3.90
2022-11-24T19:06:33.610Z,3.89
2022-11-24T19:09:07.893Z,3.89
2022-11-24T19:11:37.895Z,3.89
2022-11-24T19:14:07.148Z,3.91
2022-11-24T19:16:35.135Z,3.89
2022-11-24T19:19:03.987Z,3.89
2022-11-24T19:21:33.824Z,3.89
2022-11-24T19:24:05.422Z,3.92
2022-11-24T19:26:37.074Z,3.95
2022-11-24T19:29:06.353Z,3.95
2022-11-24T19:31:35.153Z,3.93
2022-11-24T19:34:03.590Z,3.93
2022-11-24T19:36:33.621Z,3.93
2022-11-24T19:39:05.095Z,3.93
2022-11-24T19:41:33.648Z,3.93
2022-11-24T19:44:01.389Z,3.92
2022-11-24T19:46:30.298Z,3.87
2022-11-24T19:49:02.321Z,3.89
2022-11-24T19:51:35.107Z,3.89
2022-11-24T19:54:04.846Z,3.90
2022-11-24T19:56:36.220Z,3.91
2022-11-24T19:59:06.012Z,3.91
2022-11-24T20:01:39.881Z,3.92
2022-11-24T20:04:11.416Z,3.92
2022-11-24T20:06:41.901Z,3.90
2022-11-24T20:09:12.271Z,3.90
2022-11-24T20:11:41.193Z,3.90
2022-11-24T20:14:12.145Z,3.92
2022-11-24T20:16:40.685Z,3.94
2022-11-24T20:19:12.399Z,3.96
2022-11-24T20:21:41.718Z,3.96
2022-11-24T20:24:15.715Z,3.96
2022-11-24T20:26:50.084Z,4.00
2022-11-24T20:29:19.171Z,4.01
2022-11-24T20:31:49.934Z,4.04
2022-11-24T20:34:18.999Z,4.07
2022-11-24T20:36:47.725Z,4.08
2022-11-24T20:39:20.175Z,4.08
2022-11-24T20:41:48.052Z,4.12
2022-11-24T20:44:17.856Z,4.16
2022-11-24T20:46:46.694Z,4.17
2022-11-24T20:49:16.847Z,4.19
2022-11-24T20:51:47.892Z,4.22
2022-11-24T20:54:18.148Z,4.24
2022-11-24T20:56:47.466Z,4.25
2022-11-24T20:59:18.459Z,4.27
2022-11-24T21:01:47.906Z,4.29
2022-11-24T21:04:17.065Z,4.32
2022-11-24T21:06:45.314Z,4.31
2022-11-24T21:09:13.105Z,4.27
2022-11-24T21:11:41.231Z,4.26
2022-11-24T21:14:10.397Z,4.25
2022-11-24T21:16:40.169Z,4.26
2022-11-24T21:19:13.075Z,4.27
2022-11-24T21:21:42.650Z,4.30
2022-11-24T21:24:18.408Z,4.32
2022-11-24T21:26:51.226Z,4.32
2022-11-24T21:29:22.180Z,4.32
2022-11-24T21:31:50.132Z,4.33
2022-11-24T21:34:19.458Z,4.36
2022-11-24T21:36:47.986Z,4.33
2022-11-24T21:39:16.310Z,4.32
2022-11-24T21:41:44.489Z,4.31
2022-11-24T21:44:13.600Z,4.35
2022-11-24T21:46:49.704Z,4.39
2022-11-24T21:49:22.085Z,4.42
2022-11-24T21:51:55.375Z,4.42
2022-11-24T21:54:23.946Z,4.42
2022-11-24T21:56:53.219Z,4.42
2022-11-24T21:59:21.917Z,4.43
2022-11-24T22:01:49.939Z,4.45
2022-11-24T22:04:17.893Z,4.46
2022-11-24T22:06:45.594Z,4.47
2022-11-24T22:09:17.699Z,4.51
2022-11-24T22:11:46.526Z,4.54
2022-11-24T22:14:14.465Z,4.56
2022-11-24T22:16:42.292Z,4.59
2022-11-24T22:19:10.256Z,4.60
2022-11-24T22:21:38.130Z,4.59
2022-11-24T22:24:06.080Z,4.56
2022-11-24T22:26:33.746Z,4.57
2022-11-24T22:29:01.770Z,4.60
2022-11-24T22:31:32.221Z,4.60
2022-11-24T22:34:00.943Z,4.60
2022-11-24T22:36:30.234Z,4.60
2022-11-24T22:39:04.090Z,4.61
2022-11-24T22:41:34.046Z,4.62
2022-11-24T22:44:02.496Z,4.62
2022-11-24T22:46:31.310Z,4.62
2022-11-24T22:49:00.845Z,4.61
2022-11-24T22:51:32.492Z,4.59
2022-11-24T22:54:02.638Z,4.58
2022-11-24T22:56:33.597Z,4.57
2022-11-24T22:59:02.591Z,4.57
2022-11-24T23:01:33.853Z,4.57
2022-11-24T23:04:03.731Z,4.58
2022-11-24T23:06:33.120Z,4.58
2022-11-24T23:09:02.712Z,4.60
2022-11-24T23:11:37.661Z,4.64
2022-11-24T23:14:08.749Z,4.65
2022-11-24T23:16:36.802Z,4.67
2022-11-24T23:19:05.194Z,4.67
2022-11-24T23:21:36.119Z,4.66
2022-11-24T23:24:04.547Z,4.66
2022-11-24T23:26:36.574Z,4.67
2022-11-24T23:29:05.680Z,4.68
2022-11-24T23:31:33.994Z,4.70
2022-11-24T23:34:03.510Z,4.72
2022-11-24T23:36:32.698Z,4.76
2022-11-24T23:39:10.992Z,4.80
2022-11-24T23:41:39.144Z,4.82
2022-11-24T23:44:07.713Z,4.87
2022-11-24T23:46:35.577Z,4.89
2022-11-24T23:49:03.622Z,4.88
2022-11-24T23:51:32.924Z,4.85
2022-11-24T23:56:46.776Z,4.77
2022-11-24T23:59:17.384Z,4.79
